sensor_id;sensor_type;location;lat;lon;timestamp;P1;durP1;ratioP1;P2;durP2;ratioP2
568;SDS011;269;48.884;9.192;2022-09-09T00:00:18;3.67;;;2.67;;
568;SDS011;269;48.884;9.192;2022-09-09T00:02:49;3.63;;;2.20;;
568;SDS011;269;48.884;9.192;2022-09-09T00:05:25;3.73;;;2.27;;
568;SDS011;269;48.884;9.192;2022-09-09T00:07:58;2.40;;;1.97;;
568;SDS011;269;48.884;9.192;2022-09-09T00:10:30;3.80;;;2.47;;
568;SDS011;269;48.884;9.192;2022-09-09T00:13:03;2.80;;;2.27;;
568;SDS011;269;48.884;9.192;2022-09-09T00:15:43;3.27;;;2.40;;
568;SDS011;269;48.884;9.192;2022-09-09T00:18:21;3.80;;;2.67;;
568;SDS011;269;48.884;9.192;2022-09-09T00:20:53;4.57;;;2.80;;
568;SDS011;269;48.884;9.192;2022-09-09T00:23:25;4.47;;;2.37;;
568;SDS011;269;48.884;9.192;2022-09-09T00:26:01;3.77;;;2.60;;
568;SDS011;269;48.884;9.192;2022-09-09T00:28:36;5.03;;;2.30;;
568;SDS011;269;48.884;9.192;2022-09-09T00:31:11;3.70;;;2.60;;
568;SDS011;269;48.884;9.192;2022-09-09T00:33:40;4.23;;;2.50;;
568;SDS011;269;48.884;9.192;2022-09-09T00:36:09;4.30;;;2.60;;
568;SDS011;269;48.884;9.192;2022-09-09T00:38:42;3.77;;;2.20;;
568;SDS011;269;48.884;9.192;2022-09-09T00:41:14;3.30;;;2.20;;
568;SDS011;269;48.884;9.192;2022-09-09T00:43:49;3.70;;;2.20;;
568;SDS011;269;48.884;9.192;2022-09-09T00:46:32;2.83;;;2.00;;
568;SDS011;269;48.884;9.192;2022-09-09T00:49:14;4.37;;;2.00;;
568;SDS011;269;48.884;9.192;2022-09-09T00:51:53;4.40;;;2.30;;
568;SDS011;269;48.884;9.192;2022-09-09T00:54:33;3.60;;;1.87;;
568;SDS011;269;48.884;9.192;2022-09-09T00:57:23;3.33;;;2.00;;
568;SDS011;269;48.884;9.192;2022-09-09T00:59:57;2.87;;;2.00;;
568;SDS011;269;48.884;9.192;2022-09-09T01:02:31;4.10;;;2.03;;
568;SDS011;269;48.884;9.192;2022-09-09T01:05:07;2.80;;;1.80;;
568;SDS011;269;48.884;9.192;2022-09-09T01:07:40;2.60;;;1.73;;
568;SDS011;269;48.884;9.192;2022-09-09T01:10:16;2.50;;;1.67;;
568;SDS011;269;48.884;9.192;2022-09-09T01:12:51;3.00;;;1.83;;
568;SDS011;269;48.884;9.192;2022-09-09T01:15:24;3.00;;;1.70;;
568;SDS011;269;48.884;9.192;2022-09-09T01:17:58;2.60;;;2.10;;
568;SDS011;269;48.884;9.192;2022-09-09T01:20:31;4.17;;;2.53;;
568;SDS011;269;48.884;9.192;2022-09-09T01:23:11;3.70;;;1.60;;
568;SDS011;269;48.884;9.192;2022-09-09T01:26:07;4.90;;;2.10;;
568;SDS011;269;48.884;9.192;2022-09-09T01:28:51;2.33;;;1.80;;
568;SDS011;269;48.884;9.192;2022-09-09T01:31:19;4.20;;;1.90;;
568;SDS011;269;48.884;9.192;2022-09-09T01:33:52;2.37;;;1.77;;
568;SDS011;269;48.884;9.192;2022-09-09T01:36:22;3.93;;;1.90;;
568;SDS011;269;48.884;9.192;2022-09-09T01:38:54;3.80;;;2.00;;
568;SDS011;269;48.884;9.192;2022-09-09T01:41:22;2.43;;;1.50;;
568;SDS011;269;48.884;9.192;2022-09-09T01:43:49;2.50;;;1.80;;
568;SDS011;269;48.884;9.192;2022-09-09T01:46:17;4.10;;;2.03;;
568;SDS011;269;48.884;9.192;2022-09-09T01:48:47;4.20;;;1.80;;
568;SDS011;269;48.884;9.192;2022-09-09T01:51:15;3.53;;;1.90;;
568;SDS011;269;48.884;9.192;2022-09-09T01:53:42;2.37;;;1.53;;
568;SDS011;269;48.884;9.192;2022-09-09T01:56:13;2.43;;;1.80;;
568;SDS011;269;48.884;9.192;2022-09-09T01:58:55;2.23;;;1.33;;
568;SDS011;269;48.884;9.192;2022-09-09T02:01:35;2.33;;;1.70;;
568;SDS011;269;48.884;9.192;2022-09-09T02:04:18;2.67;;;1.70;;
568;SDS011;269;48.884;9.192;2022-09-09T02:06:55;5.10;;;1.70;;
568;SDS011;269;48.884;9.192;2022-09-09T02:09:24;3.73;;;2.00;;
568;SDS011;269;48.884;9.192;2022-09-09T02:11:54;6.73;;;1.90;;
568;SDS011;269;48.884;9.192;2022-09-09T02:14:29;3.00;;;1.50;;
568;SDS011;269;48.884;9.192;2022-09-09T02:17:01;2.83;;;1.70;;
568;SDS011;269;48.884;9.192;2022-09-09T02:19:35;4.07;;;1.80;;
568;SDS011;269;48.884;9.192;2022-09-09T02:22:05;3.57;;;1.77;;
568;SDS011;269;48.884;9.192;2022-09-09T02:24:33;5.00;;;2.27;;
568;SDS011;269;48.884;9.192;2022-09-09T02:27:03;1.50;;;1.40;;
568;SDS011;269;48.884;9.192;2022-09-09T02:29:36;1.83;;;1.50;;
568;SDS011;269;48.884;9.192;2022-09-09T02:32:08;4.87;;;1.87;;
568;SDS011;269;48.884;9.192;2022-09-09T02:34:39;2.30;;;1.40;;
568;SDS011;269;48.884;9.192;2022-09-09T02:37:09;1.87;;;1.43;;
568;SDS011;269;48.884;9.192;2022-09-09T02:39:38;1.57;;;1.17;;
568;SDS011;269;48.884;9.192;2022-09-09T02:42:05;4.80;;;1.80;;
568;SDS011;269;48.884;9.192;2022-09-09T02:44:33;3.70;;;1.33;;
568;SDS011;269;48.884;9.192;2022-09-09T02:49:53;3.57;;;1.60;;
568;SDS011;269;48.884;9.192;2022-09-09T02:52:30;1.97;;;1.40;;
568;SDS011;269;48.884;9.192;2022-09-09T02:55:05;4.13;;;1.60;;
568;SDS011;269;48.884;9.192;2022-09-09T02:57:37;2.70;;;1.40;;
568;SDS011;269;48.884;9.192;2022-09-09T03:00:08;6.60;;;2.00;;
568;SDS011;269;48.884;9.192;2022-09-09T03:02:36;5.37;;;1.50;;
568;SDS011;269;48.884;9.192;2022-09-09T03:05:04;2.50;;;1.23;;
568;SDS011;269;48.884;9.192;2022-09-09T03:07:32;1.37;;;1.23;;
568;SDS011;269;48.884;9.192;2022-09-09T03:10:00;3.53;;;1.40;;
568;SDS011;269;48.884;9.192;2022-09-09T03:12:27;2.53;;;1.70;;
568;SDS011;269;48.884;9.192;2022-09-09T03:14:54;3.23;;;1.17;;
568;SDS011;269;48.884;9.192;2022-09-09T03:17:22;1.73;;;1.50;;
568;SDS011;269;48.884;9.192;2022-09-09T03:19:49;2.47;;;1.60;;
568;SDS011;269;48.884;9.192;2022-09-09T03:22:17;5.37;;;1.70;;
568;SDS011;269;48.884;9.192;2022-09-09T03:24:44;3.87;;;1.50;;
568;SDS011;269;48.884;9.192;2022-09-09T03:27:12;2.67;;;1.63;;
568;SDS011;269;48.884;9.192;2022-09-09T03:29:39;2.70;;;1.40;;
568;SDS011;269;48.884;9.192;2022-09-09T03:32:06;3.00;;;1.50;;
568;SDS011;269;48.884;9.192;2022-09-09T03:34:37;3.53;;;1.43;;
568;SDS011;269;48.884;9.192;2022-09-09T03:37:05;4.07;;;2.10;;
568;SDS011;269;48.884;9.192;2022-09-09T03:39:32;3.23;;;1.73;;
568;SDS011;269;48.884;9.192;2022-09-09T03:41:59;2.70;;;2.00;;
568;SDS011;269;48.884;9.192;2022-09-09T03:44:29;3.40;;;2.40;;
568;SDS011;269;48.884;9.192;2022-09-09T03:46:56;4.60;;;2.07;;
568;SDS011;269;48.884;9.192;2022-09-09T03:49:25;2.83;;;1.70;;
568;SDS011;269;48.884;9.192;2022-09-09T03:51:55;5.83;;;2.00;;
568;SDS011;269;48.884;9.192;2022-09-09T03:54:23;4.50;;;2.30;;
568;SDS011;269;48.884;9.192;2022-09-09T03:56:50;2.60;;;2.03;;
568;SDS011;269;48.884;9.192;2022-09-09T03:59:17;2.20;;;1.90;;
568;SDS011;269;48.884;9.192;2022-09-09T04:01:46;3.60;;;1.97;;
568;SDS011;269;48.884;9.192;2022-09-09T04:04:13;2.53;;;2.13;;
568;SDS011;269;48.884;9.192;2022-09-09T04:06:40;3.07;;;2.10;;
568;SDS011;269;48.884;9.192;2022-09-09T04:09:09;3.93;;;2.23;;
568;SDS011;269;48.884;9.192;2022-09-09T04:11:36;2.80;;;2.20;;
568;SDS011;269;48.884;9.192;2022-09-09T04:14:03;2.77;;;2.30;;
568;SDS011;269;48.884;9.192;2022-09-09T04:16:31;3.13;;;2.10;;
568;SDS011;269;48.884;9.192;2022-09-09T04:18:59;3.43;;;2.07;;
568;SDS011;269;48.884;9.192;2022-09-09T04:21:26;3.30;;;2.37;;
568;SDS011;269;48.884;9.192;2022-09-09T04:23:53;5.67;;;2.33;;
568;SDS011;269;48.884;9.192;2022-09-09T04:26:21;3.57;;;2.13;;
568;SDS011;269;48.884;9.192;2022-09-09T04:28:49;3.17;;;2.30;;
568;SDS011;269;48.884;9.192;2022-09-09T04:31:17;5.77;;;2.30;;
568;SDS011;269;48.884;9.192;2022-09-09T04:33:45;4.30;;;2.40;;
568;SDS011;269;48.884;9.192;2022-09-09T04:36:12;4.20;;;2.27;;
568;SDS011;269;48.884;9.192;2022-09-09T04:38:40;3.43;;;2.40;;
568;SDS011;269;48.884;9.192;2022-09-09T04:41:07;3.80;;;2.50;;
568;SDS011;269;48.884;9.192;2022-09-09T04:43:38;3.13;;;2.60;;
568;SDS011;269;48.884;9.192;2022-09-09T04:46:05;3.20;;;2.30;;
568;SDS011;269;48.884;9.192;2022-09-09T04:48:32;3.40;;;2.47;;
568;SDS011;269;48.884;9.192;2022-09-09T04:51:00;4.23;;;2.90;;
568;SDS011;269;48.884;9.192;2022-09-09T04:53:29;3.53;;;2.27;;
568;SDS011;269;48.884;9.192;2022-09-09T04:56:01;3.20;;;1.97;;
568;SDS011;269;48.884;9.192;2022-09-09T04:58:29;4.03;;;2.30;;
568;SDS011;269;48.884;9.192;2022-09-09T05:01:04;2.53;;;1.70;;
568;SDS011;269;48.884;9.192;2022-09-09T05:03:32;3.00;;;1.90;;
568;SDS011;269;48.884;9.192;2022-09-09T05:06:03;2.57;;;2.07;;
568;SDS011;269;48.884;9.192;2022-09-09T05:08:31;3.37;;;2.30;;
568;SDS011;269;48.884;9.192;2022-09-09T05:10:59;4.03;;;2.03;;
568;SDS011;269;48.884;9.192;2022-09-09T05:13:25;4.70;;;2.37;;
568;SDS011;269;48.884;9.192;2022-09-09T05:15:53;4.10;;;2.03;;
568;SDS011;269;48.884;9.192;2022-09-09T05:18:22;3.33;;;2.10;;
568;SDS011;269;48.884;9.192;2022-09-09T05:20:49;3.30;;;1.93;;
568;SDS011;269;48.884;9.192;2022-09-09T05:23:16;4.10;;;2.20;;
568;SDS011;269;48.884;9.192;2022-09-09T05:25:43;5.43;;;2.40;;
568;SDS011;269;48.884;9.192;2022-09-09T05:28:20;2.50;;;1.60;;
568;SDS011;269;48.884;9.192;2022-09-09T05:30:54;4.30;;;2.10;;
568;SDS011;269;48.884;9.192;2022-09-09T05:33:24;2.57;;;2.13;;
568;SDS011;269;48.884;9.192;2022-09-09T05:35:55;2.83;;;1.80;;
568;SDS011;269;48.884;9.192;2022-09-09T05:38:23;2.50;;;1.93;;
568;SDS011;269;48.884;9.192;2022-09-09T05:40:50;2.60;;;1.83;;
568;SDS011;269;48.884;9.192;2022-09-09T05:43:18;3.40;;;1.87;;
568;SDS011;269;48.884;9.192;2022-09-09T05:45:46;2.00;;;1.37;;
568;SDS011;269;48.884;9.192;2022-09-09T05:48:13;3.60;;;1.90;;
568;SDS011;269;48.884;9.192;2022-09-09T05:50:42;5.20;;;1.93;;
568;SDS011;269;48.884;9.192;2022-09-09T05:53:10;2.70;;;1.60;;
568;SDS011;269;48.884;9.192;2022-09-09T05:55:37;4.60;;;2.10;;
568;SDS011;269;48.884;9.192;2022-09-09T05:58:04;3.80;;;1.87;;
568;SDS011;269;48.884;9.192;2022-09-09T06:00:31;4.00;;;1.90;;
568;SDS011;269;48.884;9.192;2022-09-09T06:02:58;2.70;;;2.17;;
568;SDS011;269;48.884;9.192;2022-09-09T06:05:25;3.53;;;2.10;;
568;SDS011;269;48.884;9.192;2022-09-09T06:07:55;2.87;;;1.60;;
568;SDS011;269;48.884;9.192;2022-09-09T06:10:22;3.80;;;1.83;;
568;SDS011;269;48.884;9.192;2022-09-09T06:12:52;2.40;;;1.70;;
568;SDS011;269;48.884;9.192;2022-09-09T06:15:19;2.70;;;1.50;;
568;SDS011;269;48.884;9.192;2022-09-09T06:17:46;1.93;;;1.53;;
568;SDS011;269;48.884;9.192;2022-09-09T06:20:14;3.37;;;1.90;;
568;SDS011;269;48.884;9.192;2022-09-09T06:22:42;3.07;;;1.80;;
568;SDS011;269;48.884;9.192;2022-09-09T06:25:13;3.33;;;1.90;;
568;SDS011;269;48.884;9.192;2022-09-09T06:27:40;5.00;;;1.70;;
568;SDS011;269;48.884;9.192;2022-09-09T06:30:08;1.83;;;1.33;;
568;SDS011;269;48.884;9.192;2022-09-09T06:32:36;3.60;;;1.80;;
568;SDS011;269;48.884;9.192;2022-09-09T06:35:04;2.47;;;1.73;;
568;SDS011;269;48.884;9.192;2022-09-09T06:37:33;1.87;;;1.40;;
568;SDS011;269;48.884;9.192;2022-09-09T06:40:00;5.10;;;2.10;;
568;SDS011;269;48.884;9.192;2022-09-09T06:42:28;3.23;;;1.77;;
568;SDS011;269;48.884;9.192;2022-09-09T06:44:57;3.27;;;1.80;;
568;SDS011;269;48.884;9.192;2022-09-09T06:47:24;3.50;;;1.90;;
568;SDS011;269;48.884;9.192;2022-09-09T06:49:52;2.70;;;1.90;;
568;SDS011;269;48.884;9.192;2022-09-09T06:52:21;4.37;;;2.00;;
568;SDS011;269;48.884;9.192;2022-09-09T06:54:50;3.13;;;2.00;;
568;SDS011;269;48.884;9.192;2022-09-09T06:57:17;2.70;;;1.80;;
568;SDS011;269;48.884;9.192;2022-09-09T06:59:45;3.27;;;1.47;;
568;SDS011;269;48.884;9.192;2022-09-09T07:02:12;2.60;;;1.73;;
568;SDS011;269;48.884;9.192;2022-09-09T07:04:39;3.73;;;1.60;;
568;SDS011;269;48.884;9.192;2022-09-09T07:07:07;3.03;;;1.80;;
568;SDS011;269;48.884;9.192;2022-09-09T07:09:35;2.90;;;1.40;;
568;SDS011;269;48.884;9.192;2022-09-09T07:12:02;3.30;;;1.60;;
568;SDS011;269;48.884;9.192;2022-09-09T07:14:31;2.17;;;1.20;;
568;SDS011;269;48.884;9.192;2022-09-09T07:17:00;3.20;;;1.53;;
568;SDS011;269;48.884;9.192;2022-09-09T07:19:27;2.70;;;1.43;;
568;SDS011;269;48.884;9.192;2022-09-09T07:21:54;3.33;;;1.27;;
568;SDS011;269;48.884;9.192;2022-09-09T07:24:21;2.80;;;1.47;;
568;SDS011;269;48.884;9.192;2022-09-09T07:26:49;2.40;;;1.30;;
568;SDS011;269;48.884;9.192;2022-09-09T07:29:17;5.70;;;1.37;;
568;SDS011;269;48.884;9.192;2022-09-09T07:31:44;1.83;;;1.13;;
568;SDS011;269;48.884;9.192;2022-09-09T07:34:12;1.80;;;1.40;;
568;SDS011;269;48.884;9.192;2022-09-09T07:36:40;3.00;;;1.47;;
568;SDS011;269;48.884;9.192;2022-09-09T07:39:08;2.30;;;1.23;;
568;SDS011;269;48.884;9.192;2022-09-09T07:41:36;1.50;;;1.20;;
568;SDS011;269;48.884;9.192;2022-09-09T07:44:06;2.60;;;1.63;;
568;SDS011;269;48.884;9.192;2022-09-09T07:46:34;4.43;;;1.50;;
568;SDS011;269;48.884;9.192;2022-09-09T07:49:02;3.80;;;1.60;;
568;SDS011;269;48.884;9.192;2022-09-09T07:51:31;2.07;;;1.20;;
568;SDS011;269;48.884;9.192;2022-09-09T07:54:00;2.70;;;1.33;;
568;SDS011;269;48.884;9.192;2022-09-09T07:56:29;1.27;;;1.17;;
568;SDS011;269;48.884;9.192;2022-09-09T07:58:58;2.10;;;1.17;;
568;SDS011;269;48.884;9.192;2022-09-09T08:01:27;2.20;;;1.20;;
568;SDS011;269;48.884;9.192;2022-09-09T08:03:56;1.80;;;1.20;;
568;SDS011;269;48.884;9.192;2022-09-09T08:06:26;1.80;;;1.27;;
568;SDS011;269;48.884;9.192;2022-09-09T08:08:55;2.63;;;1.20;;
568;SDS011;269;48.884;9.192;2022-09-09T08:11:23;2.40;;;1.33;;
568;SDS011;269;48.884;9.192;2022-09-09T08:13:52;1.70;;;1.13;;
568;SDS011;269;48.884;9.192;2022-09-09T08:16:20;2.23;;;1.10;;
568;SDS011;269;48.884;9.192;2022-09-09T08:18:48;1.57;;;1.33;;
568;SDS011;269;48.884;9.192;2022-09-09T08:21:17;1.87;;;1.30;;
568;SDS011;269;48.884;9.192;2022-09-09T08:23:46;4.33;;;1.17;;
568;SDS011;269;48.884;9.192;2022-09-09T08:26:16;2.60;;;1.30;;
568;SDS011;269;48.884;9.192;2022-09-09T08:28:44;2.73;;;1.17;;
568;SDS011;269;48.884;9.192;2022-09-09T08:31:12;2.40;;;1.00;;
568;SDS011;269;48.884;9.192;2022-09-09T08:33:41;2.17;;;0.90;;
568;SDS011;269;48.884;9.192;2022-09-09T08:36:12;2.50;;;1.17;;
568;SDS011;269;48.884;9.192;2022-09-09T08:38:41;1.70;;;1.20;;
568;SDS011;269;48.884;9.192;2022-09-09T08:41:30;3.87;;;1.23;;
568;SDS011;269;48.884;9.192;2022-09-09T08:44:13;3.70;;;1.30;;
568;SDS011;269;48.884;9.192;2022-09-09T08:46:49;2.43;;;1.20;;
568;SDS011;269;48.884;9.192;2022-09-09T08:49:29;5.23;;;1.30;;
568;SDS011;269;48.884;9.192;2022-09-09T08:52:12;2.97;;;1.10;;
568;SDS011;269;48.884;9.192;2022-09-09T08:54:44;2.17;;;1.23;;
568;SDS011;269;48.884;9.192;2022-09-09T08:57:15;1.80;;;1.00;;
568;SDS011;269;48.884;9.192;2022-09-09T08:59:48;3.43;;;1.20;;
568;SDS011;269;48.884;9.192;2022-09-09T09:02:17;2.33;;;1.13;;
568;SDS011;269;48.884;9.192;2022-09-09T09:04:56;2.60;;;1.27;;
568;SDS011;269;48.884;9.192;2022-09-09T09:07:34;2.07;;;1.20;;
568;SDS011;269;48.884;9.192;2022-09-09T09:10:19;3.27;;;1.03;;
568;SDS011;269;48.884;9.192;2022-09-09T09:13:01;1.83;;;1.00;;
568;SDS011;269;48.884;9.192;2022-09-09T09:15:30;2.20;;;1.10;;
568;SDS011;269;48.884;9.192;2022-09-09T09:18:02;1.63;;;1.10;;
568;SDS011;269;48.884;9.192;2022-09-09T09:20:31;4.53;;;1.10;;
568;SDS011;269;48.884;9.192;2022-09-09T09:23:04;2.07;;;1.00;;
568;SDS011;269;48.884;9.192;2022-09-09T09:25:34;2.30;;;1.53;;
568;SDS011;269;48.884;9.192;2022-09-09T09:28:10;3.50;;;1.37;;
568;SDS011;269;48.884;9.192;2022-09-09T09:30:44;1.70;;;1.00;;
568;SDS011;269;48.884;9.192;2022-09-09T09:33:17;2.50;;;1.53;;
568;SDS011;269;48.884;9.192;2022-09-09T09:35:48;2.37;;;1.10;;
568;SDS011;269;48.884;9.192;2022-09-09T09:38:17;2.23;;;0.97;;
568;SDS011;269;48.884;9.192;2022-09-09T09:40:50;3.90;;;1.00;;
568;SDS011;269;48.884;9.192;2022-09-09T09:43:23;3.57;;;1.30;;
568;SDS011;269;48.884;9.192;2022-09-09T09:45:52;2.30;;;0.90;;
568;SDS011;269;48.884;9.192;2022-09-09T09:48:19;2.70;;;1.30;;
568;SDS011;269;48.884;9.192;2022-09-09T09:50:48;2.47;;;1.00;;
568;SDS011;269;48.884;9.192;2022-09-09T09:53:19;2.50;;;1.23;;
568;SDS011;269;48.884;9.192;2022-09-09T09:55:50;2.13;;;1.30;;
568;SDS011;269;48.884;9.192;2022-09-09T09:58:22;2.93;;;1.27;;
568;SDS011;269;48.884;9.192;2022-09-09T10:00:51;3.53;;;1.40;;
568;SDS011;269;48.884;9.192;2022-09-09T10:03:23;4.53;;;1.47;;
568;SDS011;269;48.884;9.192;2022-09-09T10:05:52;1.77;;;1.03;;
568;SDS011;269;48.884;9.192;2022-09-09T10:08:21;2.23;;;1.47;;
568;SDS011;269;48.884;9.192;2022-09-09T10:13:49;1.30;;;1.00;;
568;SDS011;269;48.884;9.192;2022-09-09T10:16:38;2.73;;;1.20;;
568;SDS011;269;48.884;9.192;2022-09-09T10:19:15;1.73;;;0.97;;
568;SDS011;269;48.884;9.192;2022-09-09T10:21:49;1.73;;;1.00;;
568;SDS011;269;48.884;9.192;2022-09-09T10:24:36;2.80;;;1.07;;
568;SDS011;269;48.884;9.192;2022-09-09T10:27:15;2.13;;;1.17;;
568;SDS011;269;48.884;9.192;2022-09-09T10:29:56;2.03;;;1.03;;
568;SDS011;269;48.884;9.192;2022-09-09T10:32:38;1.87;;;1.00;;
568;SDS011;269;48.884;9.192;2022-09-09T10:35:19;2.37;;;1.00;;
568;SDS011;269;48.884;9.192;2022-09-09T10:37:59;1.57;;;1.00;;
568;SDS011;269;48.884;9.192;2022-09-09T10:40:41;2.23;;;1.20;;
568;SDS011;269;48.884;9.192;2022-09-09T10:43:20;2.33;;;1.20;;
568;SDS011;269;48.884;9.192;2022-09-09T10:46:03;2.30;;;1.30;;
568;SDS011;269;48.884;9.192;2022-09-09T10:48:41;3.20;;;1.27;;
568;SDS011;269;48.884;9.192;2022-09-09T10:51:23;2.00;;;0.90;;
568;SDS011;269;48.884;9.192;2022-09-09T10:54:06;1.60;;;0.93;;
568;SDS011;269;48.884;9.192;2022-09-09T10:56:44;2.13;;;1.30;;
568;SDS011;269;48.884;9.192;2022-09-09T10:59:19;3.03;;;1.33;;
568;SDS011;269;48.884;9.192;2022-09-09T11:01:55;2.90;;;1.10;;
568;SDS011;269;48.884;9.192;2022-09-09T11:04:28;5.63;;;1.60;;
568;SDS011;269;48.884;9.192;2022-09-09T11:06:59;1.50;;;0.90;;
568;SDS011;269;48.884;9.192;2022-09-09T11:09:35;2.40;;;0.90;;
568;SDS011;269;48.884;9.192;2022-09-09T11:12:09;3.17;;;1.00;;
568;SDS011;269;48.884;9.192;2022-09-09T11:14:41;4.03;;;1.20;;
568;SDS011;269;48.884;9.192;2022-09-09T11:17:14;1.50;;;1.10;;
568;SDS011;269;48.884;9.192;2022-09-09T11:19:44;1.90;;;1.00;;
568;SDS011;269;48.884;9.192;2022-09-09T11:22:16;7.13;;;1.77;;
568;SDS011;269;48.884;9.192;2022-09-09T11:24:50;8.33;;;1.80;;
568;SDS011;269;48.884;9.192;2022-09-09T11:27:20;8.17;;;1.80;;
568;SDS011;269;48.884;9.192;2022-09-09T11:29:57;3.50;;;1.33;;
568;SDS011;269;48.884;9.192;2022-09-09T11:32:38;2.50;;;1.43;;
568;SDS011;269;48.884;9.192;2022-09-09T11:35:30;5.27;;;1.40;;
568;SDS011;269;48.884;9.192;2022-09-09T11:38:16;1.87;;;1.10;;
568;SDS011;269;48.884;9.192;2022-09-09T11:40:48;3.83;;;1.10;;
568;SDS011;269;48.884;9.192;2022-09-09T11:43:24;1.20;;;0.87;;
568;SDS011;269;48.884;9.192;2022-09-09T11:45:54;1.67;;;1.10;;
568;SDS011;269;48.884;9.192;2022-09-09T11:48:27;2.13;;;1.00;;
568;SDS011;269;48.884;9.192;2022-09-09T11:50:59;2.83;;;1.00;;
568;SDS011;269;48.884;9.192;2022-09-09T11:53:30;2.50;;;1.00;;
568;SDS011;269;48.884;9.192;2022-09-09T11:56:05;2.20;;;1.20;;
568;SDS011;269;48.884;9.192;2022-09-09T11:58:42;2.13;;;1.10;;
568;SDS011;269;48.884;9.192;2022-09-09T12:01:16;3.40;;;1.20;;
568;SDS011;269;48.884;9.192;2022-09-09T12:04:14;1.93;;;1.00;;
568;SDS011;269;48.884;9.192;2022-09-09T12:06:59;1.23;;;0.80;;
568;SDS011;269;48.884;9.192;2022-09-09T12:09:30;3.10;;;0.90;;
568;SDS011;269;48.884;9.192;2022-09-09T12:12:05;2.70;;;0.80;;
568;SDS011;269;48.884;9.192;2022-09-09T12:14:54;1.80;;;0.70;;
568;SDS011;269;48.884;9.192;2022-09-09T12:17:41;2.13;;;0.83;;
568;SDS011;269;48.884;9.192;2022-09-09T12:20:12;1.63;;;0.80;;
568;SDS011;269;48.884;9.192;2022-09-09T12:22:44;1.43;;;0.90;;
568;SDS011;269;48.884;9.192;2022-09-09T12:25:35;1.97;;;0.73;;
568;SDS011;269;48.884;9.192;2022-09-09T12:28:14;1.33;;;0.87;;
568;SDS011;269;48.884;9.192;2022-09-09T12:30:46;0.90;;;0.70;;
568;SDS011;269;48.884;9.192;2022-09-09T12:33:19;1.20;;;0.70;;
568;SDS011;269;48.884;9.192;2022-09-09T12:35:50;0.90;;;0.70;;
568;SDS011;269;48.884;9.192;2022-09-09T12:38:22;1.60;;;0.80;;
568;SDS011;269;48.884;9.192;2022-09-09T12:40:54;2.30;;;0.90;;
568;SDS011;269;48.884;9.192;2022-09-09T12:43:23;1.20;;;0.80;;
568;SDS011;269;48.884;9.192;2022-09-09T12:45:53;2.13;;;0.90;;
568;SDS011;269;48.884;9.192;2022-09-09T12:48:26;2.03;;;0.90;;
568;SDS011;269;48.884;9.192;2022-09-09T12:50:58;1.50;;;1.10;;
568;SDS011;269;48.884;9.192;2022-09-09T12:53:26;1.43;;;0.90;;
568;SDS011;269;48.884;9.192;2022-09-09T12:55:57;1.93;;;0.90;;
568;SDS011;269;48.884;9.192;2022-09-09T12:58:25;1.47;;;0.80;;
568;SDS011;269;48.884;9.192;2022-09-09T13:00:58;2.17;;;0.90;;
568;SDS011;269;48.884;9.192;2022-09-09T13:03:26;1.40;;;0.80;;
568;SDS011;269;48.884;9.192;2022-09-09T13:05:54;1.97;;;0.93;;
568;SDS011;269;48.884;9.192;2022-09-09T13:08:37;2.20;;;0.80;;
568;SDS011;269;48.884;9.192;2022-09-09T13:11:04;1.30;;;0.83;;
568;SDS011;269;48.884;9.192;2022-09-09T13:13:37;2.03;;;0.90;;
568;SDS011;269;48.884;9.192;2022-09-09T13:16:06;1.83;;;0.90;;
568;SDS011;269;48.884;9.192;2022-09-09T13:18:44;1.47;;;0.90;;
568;SDS011;269;48.884;9.192;2022-09-09T13:21:13;2.13;;;0.90;;
568;SDS011;269;48.884;9.192;2022-09-09T13:23:40;1.87;;;0.80;;
568;SDS011;269;48.884;9.192;2022-09-09T13:26:19;2.00;;;0.80;;
568;SDS011;269;48.884;9.192;2022-09-09T13:28:48;1.50;;;0.80;;
568;SDS011;269;48.884;9.192;2022-09-09T13:31:20;1.30;;;0.70;;
568;SDS011;269;48.884;9.192;2022-09-09T13:33:48;3.13;;;1.00;;
568;SDS011;269;48.884;9.192;2022-09-09T13:36:17;1.80;;;0.83;;
568;SDS011;269;48.884;9.192;2022-09-09T13:38:55;1.17;;;0.70;;
568;SDS011;269;48.884;9.192;2022-09-09T13:41:27;2.20;;;0.90;;
568;SDS011;269;48.884;9.192;2022-09-09T13:43:57;1.70;;;0.90;;
568;SDS011;269;48.884;9.192;2022-09-09T13:46:26;2.37;;;0.80;;
568;SDS011;269;48.884;9.192;2022-09-09T13:48:58;1.00;;;0.80;;
568;SDS011;269;48.884;9.192;2022-09-09T13:51:30;1.50;;;0.83;;
568;SDS011;269;48.884;9.192;2022-09-09T13:54:02;2.13;;;0.80;;
568;SDS011;269;48.884;9.192;2022-09-09T13:56:30;1.27;;;0.80;;
568;SDS011;269;48.884;9.192;2022-09-09T13:58:58;1.13;;;0.73;;
568;SDS011;269;48.884;9.192;2022-09-09T14:01:25;1.13;;;0.73;;
568;SDS011;269;48.884;9.192;2022-09-09T14:03:52;1.37;;;0.70;;
568;SDS011;269;48.884;9.192;2022-09-09T14:06:19;1.53;;;0.80;;
568;SDS011;269;48.884;9.192;2022-09-09T14:08:50;1.00;;;0.60;;
568;SDS011;269;48.884;9.192;2022-09-09T14:11:17;1.00;;;0.70;;
568;SDS011;269;48.884;9.192;2022-09-09T14:13:44;1.10;;;0.77;;
568;SDS011;269;48.884;9.192;2022-09-09T14:16:12;1.40;;;0.90;;
568;SDS011;269;48.884;9.192;2022-09-09T14:18:39;2.10;;;1.03;;
568;SDS011;269;48.884;9.192;2022-09-09T14:21:07;1.40;;;0.70;;
568;SDS011;269;48.884;9.192;2022-09-09T14:23:35;1.37;;;0.70;;
568;SDS011;269;48.884;9.192;2022-09-09T14:26:05;1.13;;;0.67;;
568;SDS011;269;48.884;9.192;2022-09-09T14:28:32;1.77;;;1.00;;
568;SDS011;269;48.884;9.192;2022-09-09T14:31:00;1.63;;;0.80;;
568;SDS011;269;48.884;9.192;2022-09-09T14:33:29;1.73;;;0.70;;
568;SDS011;269;48.884;9.192;2022-09-09T14:35:56;1.63;;;0.70;;
568;SDS011;269;48.884;9.192;2022-09-09T14:38:24;3.50;;;1.03;;
568;SDS011;269;48.884;9.192;2022-09-09T14:40:54;3.20;;;1.03;;
568;SDS011;269;48.884;9.192;2022-09-09T14:43:25;2.50;;;0.87;;
568;SDS011;269;48.884;9.192;2022-09-09T14:45:53;1.50;;;0.97;;
568;SDS011;269;48.884;9.192;2022-09-09T14:48:20;2.13;;;0.73;;
568;SDS011;269;48.884;9.192;2022-09-09T14:50:47;2.27;;;1.33;;
568;SDS011;269;48.884;9.192;2022-09-09T14:53:14;1.90;;;0.80;;
568;SDS011;269;48.884;9.192;2022-09-09T14:55:43;1.67;;;0.70;;
568;SDS011;269;48.884;9.192;2022-09-09T14:58:12;1.30;;;0.90;;
568;SDS011;269;48.884;9.192;2022-09-09T15:00:41;1.20;;;0.83;;
568;SDS011;269;48.884;9.192;2022-09-09T15:03:07;1.37;;;0.90;;
568;SDS011;269;48.884;9.192;2022-09-09T15:05:36;2.10;;;0.80;;
568;SDS011;269;48.884;9.192;2022-09-09T15:08:03;1.60;;;0.90;;
568;SDS011;269;48.884;9.192;2022-09-09T15:10:30;0.90;;;0.60;;
568;SDS011;269;48.884;9.192;2022-09-09T15:12:57;2.00;;;1.10;;
568;SDS011;269;48.884;9.192;2022-09-09T15:15:24;1.43;;;0.90;;
568;SDS011;269;48.884;9.192;2022-09-09T15:17:53;1.20;;;0.67;;
568;SDS011;269;48.884;9.192;2022-09-09T15:20:20;3.13;;;0.80;;
568;SDS011;269;48.884;9.192;2022-09-09T15:22:47;1.00;;;0.70;;
568;SDS011;269;48.884;9.192;2022-09-09T15:25:16;2.47;;;0.87;;
568;SDS011;269;48.884;9.192;2022-09-09T15:27:44;1.60;;;0.80;;
568;SDS011;269;48.884;9.192;2022-09-09T15:30:11;1.10;;;0.80;;
568;SDS011;269;48.884;9.192;2022-09-09T15:32:38;1.80;;;0.70;;
568;SDS011;269;48.884;9.192;2022-09-09T15:35:07;1.57;;;0.60;;
568;SDS011;269;48.884;9.192;2022-09-09T15:37:34;1.00;;;0.60;;
568;SDS011;269;48.884;9.192;2022-09-09T15:40:01;1.20;;;0.63;;
568;SDS011;269;48.884;9.192;2022-09-09T15:42:29;2.27;;;0.60;;
568;SDS011;269;48.884;9.192;2022-09-09T15:44:56;0.90;;;0.70;;
568;SDS011;269;48.884;9.192;2022-09-09T15:47:24;1.53;;;1.00;;
568;SDS011;269;48.884;9.192;2022-09-09T15:49:52;1.33;;;0.60;;
568;SDS011;269;48.884;9.192;2022-09-09T15:52:20;1.13;;;0.70;;
568;SDS011;269;48.884;9.192;2022-09-09T15:54:47;1.30;;;0.70;;
568;SDS011;269;48.884;9.192;2022-09-09T15:57:14;1.63;;;0.70;;
568;SDS011;269;48.884;9.192;2022-09-09T15:59:41;1.33;;;0.70;;
568;SDS011;269;48.884;9.192;2022-09-09T16:02:10;3.60;;;0.80;;
568;SDS011;269;48.884;9.192;2022-09-09T16:04:37;1.43;;;0.70;;
568;SDS011;269;48.884;9.192;2022-09-09T16:07:05;1.40;;;0.70;;
568;SDS011;269;48.884;9.192;2022-09-09T16:09:34;1.67;;;0.80;;
568;SDS011;269;48.884;9.192;2022-09-09T16:12:02;2.07;;;0.73;;
568;SDS011;269;48.884;9.192;2022-09-09T16:14:33;1.30;;;0.60;;